Terminal Aerodrome Forecast
Issued by NWS

Home | Current Version | Previous Version | Text Only | Print | Product List | Glossary On
Versions: 1 2 3 4 5 6 7 8 9 10 11 12 13 14 15 16 17 18 19 20 21 22 23 24 25 26 27 28 29 30 31 32 33 34 35 36 37 38 39 40 41 42 43 44 45 46 47 48 49 50
000
FTUS45 KGJT 292146 AAE
TAFTEX
TAF AMD
KTEX 292146Z 2922/3018 25011KT 1/2SM SN FG OVC003
      TEMPO 2922/2923 P6SM NSW SCT030 BKN040
     FM292300 30007KT P6SM VCSH OVC060
     FM300400 VRB03KT P6SM VCSH OVC110
     FM300600 00000KT P6SM OVC110
     FM300800 00000KT P6SM VCSH BKN110=

USA.gov is the U.S. government's official web portal to all federal, state and local government web resources and services.